Terminal Aerodrome Forecast
Issued by NWS Melbourne, FL

Home | Current Version | Previous Version | Text Only | Print | Product List | Glossary On
Versions: 1 2 3 4 5 6 7 8 9 10 11 12 13 14 15 16 17 18 19 20 21 22 23 24 25 26
000
FTUS42 KMLB 231500 AAA
TAFMCO
TAF AMD
KMCO 231507Z 2315/2412 19007KT P6SM VCSH SCT020 BKN200
     FM231800 15006KT P6SM VCTS SCT035CB BKN120
      TEMPO 2319/2322 3SM TSRA BKN025CB
     FM240200 15003KT P6SM SCT040 BKN140=

USA.gov is the U.S. government's official web portal to all federal, state and local government web resources and services.